Time;durP1;ratioP1;P1;durP2;ratioP2;P2;SDS_P1;SDS_P2;PMS_P1;PMS_P2;Temp;Humidity;BMP_temperature;BMP_pressure;BME280_temperature;BME280_humidity;BME280_pressure;Samples;Min_cycle;Max_cycle;Signal;HPM_P1;HPM_P2
2021/01/09 00:00:51;;;;;;;34.50;14.38;;;52.00;2227.20;;;;;;4999660;28;20108;-71
2021/01/09 00:05:53;;;;;;;31.20;15.68;;;51.80;2227.20;;;;;;5315862;23;20415;-75
2021/01/09 00:08:20;;;;;;;30.42;14.27;;;51.90;2227.20;;;;;;5006448;28;20130;-73
2021/01/09 00:10:48;;;;;;;30.48;14.75;;;51.90;2227.20;;;;;;5005790;28;20029;-73
2021/01/09 00:13:14;;;;;;;30.98;14.68;;;51.90;2227.20;;;;;;4998590;28;20038;-73
2021/01/09 00:15:40;;;;;;;35.53;16.75;;;51.90;2227.20;;;;;;4996739;28;20026;-75
2021/01/09 00:18:06;;;;;;;34.13;15.82;;;51.90;2227.20;;;;;;4996973;28;20366;-73
2021/01/09 00:20:32;;;;;;;38.72;16.58;;;51.90;2227.20;;;;;;4996798;28;20022;-73
2021/01/09 00:22:57;;;;;;;32.38;15.52;;;51.90;2227.20;;;;;;4998970;28;20034;-74
2021/01/09 00:25:23;;;;;;;34.90;15.15;;;51.90;2227.20;;;;;;4996696;28;20124;-75
2021/01/09 00:27:49;;;;;;;35.17;16.67;;;51.90;2227.20;;;;;;5003960;28;20419;-73
2021/01/09 00:30:16;;;;;;;37.42;16.48;;;51.80;2227.20;;;;;;5005334;28;20030;-71
2021/01/09 00:32:42;;;;;;;36.20;16.23;;;51.80;2227.20;;;;;;5003946;28;20042;-73
2021/01/09 00:35:08;;;;;;;38.30;16.25;;;51.80;2227.20;;;;;;5015757;28;20034;-71
2021/01/09 00:37:34;;;;;;;30.17;14.77;;;51.90;2227.20;;;;;;5016252;28;20378;-71
2021/01/09 00:40:00;;;;;;;34.85;15.63;;;51.90;2227.20;;;;;;5015656;28;20029;-73
2021/01/09 00:42:25;;;;;;;34.00;15.80;;;51.90;2227.20;;;;;;5015039;28;20707;-72
2021/01/09 00:44:51;;;;;;;32.83;14.95;;;52.00;2227.20;;;;;;5016128;28;20026;-71
2021/01/09 00:47:17;;;;;;;33.58;15.15;;;52.00;2227.20;;;;;;5015333;28;20036;-71
2021/01/09 00:49:43;;;;;;;34.08;15.23;;;52.00;2227.20;;;;;;5015978;28;20438;-72
2021/01/09 00:52:08;;;;;;;28.38;14.25;;;52.00;2227.20;;;;;;5015889;28;20044;-71
2021/01/09 00:54:36;;;;;;;33.85;15.15;;;52.00;2227.20;;;;;;5015870;28;20045;-73
2021/01/09 00:57:01;;;;;;;33.85;16.17;;;52.10;2227.20;;;;;;5015933;28;20438;-72
2021/01/09 00:59:27;;;;;;;30.38;15.50;;;76.80;2227.20;;;;;;5015870;28;20025;-73
2021/01/09 01:01:53;;;;;;;31.55;15.43;;;52.10;2227.20;;;;;;5015826;28;20038;-73
2021/01/09 01:04:19;;;;;;;32.88;16.75;;;76.80;2227.20;;;;;;5016128;28;20076;-72
2021/01/09 01:06:47;;;;;;;32.88;15.52;;;76.80;2227.20;;;;;;5015399;28;20116;-75
2021/01/09 01:09:13;;;;;;;34.63;16.33;;;77.00;2227.20;;;;;;5015510;28;20161;-71
2021/01/09 01:11:40;;;;;;;33.03;15.43;;;77.00;2227.20;;;;;;5015765;28;20050;-75
2021/01/09 01:14:06;;;;;;;29.98;14.18;;;77.00;2227.20;;;;;;5015837;28;20033;-72
2021/01/09 01:16:32;;;;;;;28.83;14.77;;;77.00;2227.20;;;;;;5015371;28;20039;-74
2021/01/09 01:18:57;;;;;;;28.45;13.40;;;77.00;2227.20;;;;;;4998142;28;20025;-71
2021/01/09 01:21:23;;;;;;;31.08;15.75;;;77.00;2227.20;;;;;;5015751;28;20040;-74
2021/01/09 01:23:49;;;;;;;30.00;14.02;;;77.00;2227.20;;;;;;5014899;28;20022;-70
2021/01/09 01:26:15;;;;;;;36.13;14.07;;;77.00;2227.20;;;;;;5015350;28;20088;-72
2021/01/09 01:28:41;;;;;;;32.38;14.25;;;76.90;2227.20;;;;;;5015659;28;20084;-71
2021/01/09 01:31:08;;;;;;;41.22;15.05;;;76.90;2227.20;;;;;;5013755;28;20411;-72
2021/01/09 01:33:36;;;;;;;42.50;14.45;;;76.90;2227.20;;;;;;4995776;28;20412;-71
2021/01/09 01:36:02;;;;;;;39.40;14.82;;;76.80;2227.20;;;;;;5002483;28;20034;-71
2021/01/09 01:38:28;;;;;;;41.63;15.68;;;76.90;2227.20;;;;;;5004151;28;20026;-73
2021/01/09 01:41:07;;;;;;;60.75;16.23;;;76.90;2227.20;;;;;;5006884;28;20040;-73
2021/01/09 01:43:34;;;;;;;58.03;15.88;;;76.90;2227.20;;;;;;4987791;28;20675;-72
2021/01/09 01:46:02;;;;;;;31.67;12.25;;;76.80;2227.20;;;;;;5003587;28;20031;-72
2021/01/09 01:48:29;;;;;;;54.13;13.73;;;52.10;2227.20;;;;;;5004360;28;20474;-72
2021/01/09 01:50:55;;;;;;;55.13;14.18;;;52.00;2227.20;;;;;;5005129;28;20034;-73
2021/01/09 01:53:21;;;;;;;70.93;15.90;;;52.00;2227.20;;;;;;5005343;28;20030;-73
2021/01/09 01:55:49;;;;;;;58.35;16.52;;;52.00;2227.20;;;;;;5009282;28;20034;-72
2021/01/09 01:58:15;;;;;;;85.28;16.90;;;52.00;2227.20;;;;;;5009682;28;20088;-75
2021/01/09 02:00:48;;;;;;;73.10;17.60;;;52.00;2227.20;;;;;;5012353;28;20443;-71
2021/01/09 02:03:18;;;;;;;71.25;16.15;;;52.00;2227.20;;;;;;5011262;28;20022;-72
2021/01/09 02:05:56;;;;;;;108.18;17.65;;;52.00;2227.20;;;;;;5009638;28;20455;-74
2021/01/09 02:08:27;;;;;;;134.57;20.17;;;52.00;2227.20;;;;;;5010397;28;20030;-73
2021/01/09 02:10:58;;;;;;;154.57;19.50;;;52.00;2227.20;;;;;;5010790;28;20259;-73
2021/01/09 02:13:31;;;;;;;110.28;18.30;;;51.90;2227.20;;;;;;5010076;28;20037;-72
2021/01/09 02:15:57;;;;;;;148.80;20.92;;;52.00;2227.20;;;;;;5011154;28;20076;-71
2021/01/09 02:18:25;;;;;;;142.65;20.98;;;51.90;2227.20;;;;;;5011880;28;20059;-72
2021/01/09 02:21:03;;;;;;;133.55;19.42;;;51.90;2227.20;;;;;;5010544;28;20045;-71
2021/01/09 02:23:29;;;;;;;154.57;20.83;;;51.90;2227.20;;;;;;5010362;28;20026;-72
2021/01/09 02:25:55;;;;;;;125.63;21.65;;;51.90;2227.20;;;;;;5010512;28;20258;-73
2021/01/09 02:28:21;;;;;;;125.13;21.92;;;51.90;2227.20;;;;;;5011718;28;20423;-72
2021/01/09 02:30:48;;;;;;;129.05;20.45;;;51.90;2227.20;;;;;;5009839;28;20026;-73
2021/01/09 02:33:18;;;;;;;147.23;21.25;;;51.90;2227.20;;;;;;5010875;28;20083;-73
2021/01/09 02:35:45;;;;;;;179.75;21.27;;;51.90;2227.20;;;;;;5012041;28;20033;-74
2021/01/09 02:38:11;;;;;;;129.90;19.77;;;51.90;2227.20;;;;;;5010098;28;20022;-73
2021/01/09 02:40:41;;;;;;;170.20;19.58;;;51.90;2227.20;;;;;;5010137;28;20021;-74
2021/01/09 02:43:13;;;;;;;116.72;16.65;;;51.90;2227.20;;;;;;5011878;28;20018;-75
2021/01/09 02:45:39;;;;;;;144.30;17.05;;;51.90;2227.20;;;;;;5011141;28;20419;-74
2021/01/09 02:48:06;;;;;;;111.82;16.60;;;51.90;2227.20;;;;;;5013722;28;20040;-72
2021/01/09 02:50:32;;;;;;;114.50;18.13;;;52.00;2227.20;;;;;;5019911;28;20042;-74
2021/01/09 02:52:58;;;;;;;93.72;15.18;;;51.90;2227.20;;;;;;5019450;28;20651;-73
2021/01/09 02:55:24;;;;;;;109.88;15.57;;;51.90;2227.20;;;;;;5019447;28;20113;-74
2021/01/09 02:57:50;;;;;;;144.00;15.90;;;52.00;2227.20;;;;;;5020168;28;20319;-75
2021/01/09 03:00:17;;;;;;;158.85;16.45;;;52.00;2227.20;;;;;;5019597;28;20370;-74
2021/01/09 03:02:43;;;;;;;94.10;15.68;;;52.00;2227.20;;;;;;5013566;28;20482;-72
2021/01/09 03:05:09;;;;;;;92.88;17.02;;;52.00;2227.20;;;;;;5015199;28;20057;-75
2021/01/09 03:07:35;;;;;;;140.93;18.77;;;52.00;2227.20;;;;;;5017943;28;20046;-75
2021/01/09 03:10:01;;;;;;;139.15;18.17;;;52.00;2227.20;;;;;;5017655;28;20037;-72
2021/01/09 03:12:26;;;;;;;118.22;16.60;;;51.90;2227.20;;;;;;5017223;28;20041;-71
2021/01/09 03:14:52;;;;;;;143.57;16.52;;;51.90;2227.20;;;;;;5017434;28;20069;-74
2021/01/09 03:17:18;;;;;;;117.07;18.05;;;51.90;2227.20;;;;;;5018024;28;20120;-73
2021/01/09 03:19:44;;;;;;;131.48;17.83;;;51.80;2227.20;;;;;;5018129;28;20113;-72
2021/01/09 03:22:09;;;;;;;97.20;16.13;;;51.80;2227.20;;;;;;5017756;28;20040;-73
2021/01/09 03:24:35;;;;;;;159.82;18.75;;;51.80;2227.20;;;;;;5017324;28;20029;-74
2021/01/09 03:27:01;;;;;;;91.97;16.77;;;51.70;2227.20;;;;;;5017662;28;20057;-72
2021/01/09 03:29:27;;;;;;;119.90;18.50;;;51.80;2227.20;;;;;;5017214;28;20088;-73
2021/01/09 03:31:52;;;;;;;211.43;19.85;;;51.80;2227.20;;;;;;5016891;28;20332;-72
2021/01/09 03:34:18;;;;;;;144.35;17.13;;;51.80;2227.20;;;;;;5017532;28;20034;-72
2021/01/09 03:36:44;;;;;;;203.63;20.90;;;51.80;2227.20;;;;;;5009500;28;20026;-73
2021/01/09 03:39:10;;;;;;;195.65;21.50;;;51.80;2227.20;;;;;;5000024;28;20105;-72
2021/01/09 03:41:35;;;;;;;123.72;20.17;;;51.70;2227.20;;;;;;5000242;28;20156;-75
2021/01/09 03:44:01;;;;;;;190.18;23.58;;;51.70;2227.20;;;;;;4999451;28;20416;-74
2021/01/09 03:46:27;;;;;;;195.15;25.35;;;51.70;2227.20;;;;;;4999879;28;20022;-73
2021/01/09 03:48:52;;;;;;;158.50;21.17;;;51.60;2227.20;;;;;;4999545;28;20026;-72
2021/01/09 03:51:20;;;;;;;227.77;24.20;;;51.60;2227.20;;;;;;4999468;28;20033;-74
2021/01/09 03:53:46;;;;;;;209.13;22.58;;;51.60;2227.20;;;;;;5000060;28;20037;-74
2021/01/09 03:56:12;;;;;;;133.68;21.05;;;51.60;2227.20;;;;;;4999583;28;20030;-73
2021/01/09 03:58:37;;;;;;;290.33;27.50;;;51.60;2227.20;;;;;;4999954;28;20064;-72
2021/01/09 04:01:03;;;;;;;236.63;26.58;;;51.50;2227.20;;;;;;4999275;28;20055;-73
2021/01/09 04:03:29;;;;;;;169.85;23.98;;;51.50;2227.20;;;;;;4999364;28;20079;-72
2021/01/09 04:05:56;;;;;;;176.75;25.15;;;51.50;2227.20;;;;;;4999137;28;20050;-73
2021/01/09 04:08:22;;;;;;;176.07;24.10;;;51.50;2227.20;;;;;;4999835;28;20026;-74
2021/01/09 04:10:48;;;;;;;127.03;23.92;;;51.60;2227.20;;;;;;4999109;28;20023;-73
2021/01/09 04:13:13;;;;;;;150.77;26.75;;;51.60;2227.20;;;;;;4998850;28;20034;-74
2021/01/09 04:15:39;;;;;;;142.18;23.55;;;51.60;2227.20;;;;;;4999964;28;20113;-73
2021/01/09 04:18:05;;;;;;;129.95;25.17;;;51.60;2227.20;;;;;;4997615;28;20030;-73
2021/01/09 04:20:31;;;;;;;102.20;25.20;;;51.60;2227.20;;;;;;4999020;28;20022;-74
2021/01/09 04:22:56;;;;;;;108.32;25.33;;;51.70;2227.20;;;;;;4999464;28;20031;-73
2021/01/09 04:25:22;;;;;;;98.20;24.85;;;51.70;2227.20;;;;;;4998373;28;20439;-72
2021/01/09 04:27:48;;;;;;;78.40;25.38;;;51.60;2227.20;;;;;;4999368;28;20026;-73
2021/01/09 04:30:15;;;;;;;69.00;24.13;;;51.60;2227.20;;;;;;4999343;28;20326;-73
2021/01/09 04:32:40;;;;;;;65.35;26.08;;;51.70;2227.20;;;;;;4998935;28;20034;-71
2021/01/09 04:35:06;;;;;;;65.22;24.48;;;51.70;2227.20;;;;;;4999241;28;20113;-74
2021/01/09 04:37:36;;;;;;;61.63;24.98;;;51.70;2227.20;;;;;;4998964;28;20026;-73
2021/01/09 04:40:05;;;;;;;59.70;25.67;;;51.60;2227.20;;;;;;4998422;28;20022;-71
2021/01/09 04:42:32;;;;;;;63.75;25.95;;;51.70;2227.20;;;;;;5005428;28;20026;-75
2021/01/09 04:44:58;;;;;;;65.10;26.52;;;51.70;2227.20;;;;;;4998507;28;20081;-74
2021/01/09 04:47:25;;;;;;;52.72;25.02;;;51.70;2227.20;;;;;;4998748;28;20030;-72
2021/01/09 04:49:50;;;;;;;61.42;27.02;;;51.70;2227.20;;;;;;4998675;28;20026;-73
2021/01/09 04:52:18;;;;;;;61.75;26.10;;;51.70;2227.20;;;;;;5003357;28;20052;-73
2021/01/09 04:54:46;;;;;;;59.38;26.83;;;51.70;2227.20;;;;;;5016233;28;20128;-74
2021/01/09 04:57:12;;;;;;;57.25;26.92;;;51.70;2227.20;;;;;;5017942;28;20061;-73
2021/01/09 04:59:38;;;;;;;53.80;27.55;;;51.70;2227.20;;;;;;5018152;28;20026;-72
2021/01/09 05:02:04;;;;;;;54.42;26.95;;;51.70;2227.20;;;;;;5018097;28;20033;-73
2021/01/09 05:04:30;;;;;;;58.58;29.88;;;51.80;2227.20;;;;;;5018066;28;20025;-72
2021/01/09 05:06:56;;;;;;;63.47;30.75;;;51.70;2227.20;;;;;;5017755;28;20424;-72
2021/01/09 05:09:22;;;;;;;62.13;28.58;;;51.70;2227.20;;;;;;5017994;28;20029;-72
2021/01/09 05:11:47;;;;;;;60.33;28.88;;;51.70;2227.20;;;;;;5012011;28;20030;-74
2021/01/09 05:14:13;;;;;;;52.28;27.33;;;51.70;2227.20;;;;;;5017637;28;20030;-72
2021/01/09 05:16:40;;;;;;;61.72;31.13;;;51.70;2227.20;;;;;;5017850;28;20030;-74
2021/01/09 05:19:07;;;;;;;60.28;31.02;;;51.70;2227.20;;;;;;5017797;28;20032;-74
2021/01/09 05:21:35;;;;;;;73.40;31.98;;;51.70;2227.20;;;;;;5017027;28;20347;-74
2021/01/09 05:24:01;;;;;;;63.75;32.13;;;51.70;2227.20;;;;;;5017802;28;20076;-73
2021/01/09 05:26:28;;;;;;;73.22;34.80;;;51.70;2227.20;;;;;;5017774;28;20026;-72
2021/01/09 05:29:02;;;;;;;66.13;32.38;;;51.70;2227.20;;;;;;5017356;28;20114;-74
2021/01/09 05:31:39;;;;;;;68.30;32.67;;;51.70;2227.20;;;;;;5011102;28;20416;-73
2021/01/09 05:34:06;;;;;;;58.13;30.52;;;51.70;2227.20;;;;;;5017638;28;20419;-73
2021/01/09 05:36:32;;;;;;;64.47;32.47;;;51.50;2227.20;;;;;;5017300;28;20032;-73
2021/01/09 05:38:58;;;;;;;65.72;32.10;;;51.60;2227.20;;;;;;5017278;28;20490;-72
2021/01/09 05:41:25;;;;;;;68.57;32.47;;;51.60;2227.20;;;;;;5017003;28;20064;-73
2021/01/09 05:44:02;;;;;;;60.70;30.35;;;51.60;2227.20;;;;;;5017210;28;20022;-72
2021/01/09 05:46:33;;;;;;;65.43;31.48;;;51.50;2227.20;;;;;;5017763;28;20030;-73
2021/01/09 05:48:59;;;;;;;60.22;31.38;;;51.60;2227.20;;;;;;5017491;28;20022;-73
2021/01/09 05:51:31;;;;;;;63.50;32.80;;;51.60;2227.20;;;;;;5017621;28;20164;-73
2021/01/09 05:53:56;;;;;;;60.20;31.30;;;51.60;2227.20;;;;;;5017428;28;20029;-73
2021/01/09 05:56:24;;;;;;;64.30;32.70;;;51.60;2227.20;;;;;;5013728;28;20044;-72
2021/01/09 05:58:53;;;;;;;61.58;31.17;;;51.50;2227.20;;;;;;5017341;28;20433;-74
2021/01/09 06:01:29;;;;;;;61.47;31.15;;;51.50;2227.20;;;;;;5017188;28;20061;-72
2021/01/09 06:04:25;;;;;;;66.65;31.85;;;51.50;2227.20;;;;;;5010933;28;20026;-72
2021/01/09 06:07:00;;;;;;;65.55;30.77;;;51.40;2227.20;;;;;;5004956;28;20089;-73
2021/01/09 06:09:33;;;;;;;65.80;31.52;;;51.30;2227.20;;;;;;5006110;28;20031;-71
2021/01/09 06:12:06;;;;;;;63.42;31.10;;;51.30;2227.20;;;;;;5007536;28;20055;-71
2021/01/09 06:14:35;;;;;;;61.22;30.20;;;51.30;2227.20;;;;;;5006692;28;20050;-72
2021/01/09 06:17:03;;;;;;;61.60;28.40;;;51.30;2227.20;;;;;;5003170;28;20105;-72
2021/01/09 06:19:29;;;;;;;73.47;37.15;;;51.30;2227.20;;;;;;5000566;28;20026;-71
2021/01/09 06:21:55;;;;;;;58.70;28.92;;;51.30;2227.20;;;;;;4999810;28;20030;-71
2021/01/09 06:24:22;;;;;;;60.25;28.65;;;51.20;2227.20;;;;;;4996910;28;20034;-71
2021/01/09 06:26:48;;;;;;;60.53;29.60;;;51.20;2227.20;;;;;;4997455;28;20313;-71
2021/01/09 06:29:22;;;;;;;65.43;30.63;;;51.20;2227.20;;;;;;5006251;28;20044;-71
2021/01/09 06:31:54;;;;;;;56.17;29.17;;;51.20;2227.20;;;;;;5016710;28;20026;-73
2021/01/09 06:34:22;;;;;;;74.50;29.92;;;51.20;2227.20;;;;;;5017279;28;20030;-71
2021/01/09 06:36:57;;;;;;;62.45;28.38;;;51.20;2227.20;;;;;;5002390;28;20037;-73
2021/01/09 06:39:25;;;;;;;57.30;27.80;;;51.20;2227.20;;;;;;4996984;28;20026;-72
2021/01/09 06:41:54;;;;;;;60.75;31.40;;;26.50;2201.60;;;;;;5000262;28;20030;-71
2021/01/09 06:44:24;;;;;;;67.15;32.30;;;26.50;2201.60;;;;;;5000553;28;20416;-71
2021/01/09 06:46:54;;;;;;;72.90;32.42;;;51.20;2227.20;;;;;;5001305;28;20029;-74
2021/01/09 06:49:27;;;;;;;90.95;39.13;;;26.40;2201.60;;;;;;5001275;28;20037;-72
2021/01/09 06:51:55;;;;;;;69.93;33.42;;;26.40;2201.60;;;;;;4998983;28;20033;-71
2021/01/09 06:54:30;;;;;;;85.95;30.38;;;26.40;2201.60;;;;;;4999169;28;20058;-71
2021/01/09 06:57:05;;;;;;;74.80;35.10;;;26.40;2201.60;;;;;;4999154;28;20038;-72
2021/01/09 06:59:40;;;;;;;71.45;32.88;;;26.40;2201.60;;;;;;4999121;28;20044;-72
2021/01/09 07:02:18;;;;;;;68.20;30.95;;;26.50;2201.60;;;;;;4999119;28;20080;-71
2021/01/09 07:05:18;;;;;;;67.00;27.52;;;26.40;2201.60;;;;;;5000088;28;20030;-74
2021/01/09 07:08:01;;;;;;;73.70;28.35;;;26.20;2201.60;;;;;;4995304;28;20230;-71
2021/01/09 07:10:28;;;;;;;69.85;26.65;;;26.10;2201.60;;;;;;5000893;28;20038;-72
2021/01/09 07:12:58;;;;;;;67.15;27.48;;;26.10;2201.60;;;;;;5000181;28;20498;-71
2021/01/09 07:15:25;;;;;;;71.07;29.88;;;26.10;2201.60;;;;;;5000490;28;20026;-72
2021/01/09 07:17:54;;;;;;;76.57;27.98;;;26.10;2201.60;;;;;;5000386;28;20026;-72
2021/01/09 07:20:23;;;;;;;91.38;31.27;;;26.00;2201.60;;;;;;5000144;28;20026;-71
2021/01/09 07:22:52;;;;;;;91.30;30.02;;;26.00;2201.60;;;;;;5000657;28;20033;-72
2021/01/09 07:25:25;;;;;;;;;;;25.90;2201.60;;;;;;5000761;28;20069;-71
2021/01/09 07:27:54;;;;;;;99.10;29.83;;;25.90;2201.60;;;;;;4999989;28;19909;-71
2021/01/09 07:30:23;;;;;;;102.75;31.60;;;25.90;2201.60;;;;;;5000512;28;20053;-73
2021/01/09 07:32:54;;;;;;;102.68;29.60;;;25.90;2201.60;;;;;;5000124;28;20312;-72
2021/01/09 07:35:28;;;;;;;98.53;31.35;;;25.90;2201.60;;;;;;5000002;28;20030;-71
2021/01/09 07:38:03;;;;;;;85.50;29.15;;;25.90;2201.60;;;;;;5000127;28;20084;-70
2021/01/09 07:40:45;;;;;;;89.88;29.20;;;26.00;2201.60;;;;;;4999489;28;20536;-73
2021/01/09 07:43:42;;;;;;;94.28;27.70;;;25.90;2201.60;;;;;;5000055;28;20406;-72
2021/01/09 07:46:28;;;;;;;99.47;28.52;;;25.90;2201.60;;;;;;4999972;28;20028;-72
2021/01/09 07:48:59;;;;;;;95.20;30.33;;;25.90;2201.60;;;;;;4999632;28;20050;-71
2021/01/09 07:51:51;;;;;;;102.95;28.85;;;25.80;2201.60;;;;;;4999537;28;20030;-72
2021/01/09 07:54:37;;;;;;;122.50;29.55;;;25.90;2201.60;;;;;;4999295;28;20038;-71
2021/01/09 07:57:04;;;;;;;102.20;28.88;;;25.80;2201.60;;;;;;5000025;28;20069;-72
2021/01/09 07:59:30;;;;;;;127.55;30.00;;;25.80;2201.60;;;;;;4999712;28;20037;-73
2021/01/09 08:01:56;;;;;;;148.15;32.42;;;25.80;2201.60;;;;;;4999381;28;20030;-72
2021/01/09 08:04:21;;;;;;;177.45;31.48;;;25.90;2201.60;;;;;;4999057;28;20034;-72
2021/01/09 08:06:47;;;;;;;161.30;29.50;;;25.90;2201.60;;;;;;5001750;28;20041;-72
2021/01/09 08:09:13;;;;;;;155.35;32.70;;;25.90;2201.60;;;;;;5005413;28;20041;-72
2021/01/09 08:11:41;;;;;;;145.52;32.75;;;25.90;2201.60;;;;;;5006010;28;20029;-70
2021/01/09 08:14:07;;;;;;;123.15;31.85;;;26.10;2201.60;;;;;;5007215;28;20093;-71
2021/01/09 08:16:33;;;;;;;120.00;29.70;;;26.20;2201.60;;;;;;5005548;28;20500;-71
2021/01/09 08:19:28;;;;;;;116.65;29.83;;;26.40;2201.60;;;;;;5006092;28;20105;-72
2021/01/09 08:21:54;;;;;;;110.97;29.10;;;26.40;2201.60;;;;;;4909075;29;20044;-71
2021/01/09 08:24:24;;;;;;;89.32;27.67;;;26.50;2201.60;;;;;;4907204;29;20035;-71
2021/01/09 08:26:54;;;;;;;103.63;27.25;;;51.20;2227.20;;;;;;4908498;29;20118;-72
2021/01/09 08:29:24;;;;;;;107.60;26.88;;;51.20;2227.20;;;;;;4907634;29;20044;-70
2021/01/09 08:31:51;;;;;;;78.68;26.60;;;26.50;2201.60;;;;;;4906415;29;20123;-73
2021/01/09 08:34:18;;;;;;;129.35;25.75;;;26.40;2201.60;;;;;;4907092;29;20028;-72
2021/01/09 08:36:44;;;;;;;92.07;25.30;;;26.50;2201.60;;;;;;4907853;29;20092;-72
2021/01/09 08:39:10;;;;;;;91.13;25.50;;;51.20;2227.20;;;;;;4906226;29;20074;-70
2021/01/09 08:41:40;;;;;;;93.10;24.58;;;51.40;2227.20;;;;;;4907412;29;20426;-71
2021/01/09 08:44:10;;;;;;;83.57;25.73;;;51.50;2227.20;;;;;;4907624;29;20426;-70
2021/01/09 08:46:38;;;;;;;97.90;25.15;;;51.50;2227.20;;;;;;4907106;29;20432;-70
2021/01/09 08:49:05;;;;;;;80.78;23.90;;;51.60;2227.20;;;;;;4906015;29;20227;-70
2021/01/09 08:51:32;;;;;;;71.47;24.45;;;51.50;2227.20;;;;;;4907668;29;20470;-71
2021/01/09 08:54:02;;;;;;;69.20;23.85;;;51.50;2227.20;;;;;;4907276;29;20032;-71
2021/01/09 08:56:30;;;;;;;86.38;24.40;;;51.50;2227.20;;;;;;4906094;29;20044;-70
2021/01/09 08:59:10;;;;;;;87.63;23.90;;;51.40;2227.20;;;;;;4982999;28;20415;-71
2021/01/09 09:01:41;;;;;;;95.97;25.35;;;51.20;2227.20;;;;;;5005061;28;20432;-70
2021/01/09 09:04:08;;;;;;;89.57;26.60;;;51.20;2227.20;;;;;;5003311;28;20130;-72
2021/01/09 09:06:41;;;;;;;107.15;24.80;;;51.20;2227.20;;;;;;5003102;28;20058;-73
2021/01/09 09:09:08;;;;;;;82.72;24.27;;;51.20;2227.20;;;;;;5007971;28;20085;-73
2021/01/09 09:11:34;;;;;;;88.30;27.20;;;26.40;2201.60;;;;;;5015393;28;20029;-73
2021/01/09 09:14:04;;;;;;;87.03;25.25;;;26.20;2201.60;;;;;;5015896;28;20138;-74
2021/01/09 09:16:32;;;;;;;87.90;27.23;;;26.30;2201.60;;;;;;5015294;28;20347;-74
2021/01/09 09:18:57;;;;;;;92.07;25.35;;;26.40;2201.60;;;;;;5015263;28;20112;-72
2021/01/09 09:21:26;;;;;;;72.38;22.85;;;26.50;2201.60;;;;;;5015493;28;20121;-74
2021/01/09 09:23:53;;;;;;;60.47;22.45;;;26.50;2201.60;;;;;;5015271;28;20029;-73
2021/01/09 09:26:19;;;;;;;62.25;22.27;;;51.20;2227.20;;;;;;5015241;28;20045;-74
2021/01/09 09:28:47;;;;;;;62.85;22.85;;;26.50;2201.60;;;;;;5015546;28;20034;-74
2021/01/09 09:31:28;;;;;;;66.07;24.50;;;26.20;2201.60;;;;;;5015109;28;20021;-74
2021/01/09 09:34:06;;;;;;;86.95;23.33;;;26.40;2201.60;;;;;;5015394;28;20065;-73
2021/01/09 09:36:35;;;;;;;84.20;23.95;;;26.40;2201.60;;;;;;5014962;28;20415;-74
2021/01/09 09:39:14;;;;;;;75.80;23.95;;;26.40;2201.60;;;;;;5014815;28;20034;-73
2021/01/09 09:41:50;;;;;;;77.20;24.75;;;26.20;2201.60;;;;;;5015589;28;20112;-73
2021/01/09 09:44:16;;;;;;;71.13;23.75;;;26.30;2201.60;;;;;;5015711;28;20072;-73
2021/01/09 09:46:42;;;;;;;66.07;23.10;;;26.30;2201.60;;;;;;5006863;28;20031;-74
2021/01/09 09:49:08;;;;;;;67.72;24.00;;;26.10;2201.60;;;;;;4996150;28;20428;-74
2021/01/09 09:51:37;;;;;;;66.57;24.45;;;26.20;2201.60;;;;;;4995105;28;20121;-73
2021/01/09 09:54:04;;;;;;;61.30;22.60;;;26.20;2201.60;;;;;;5013861;28;20351;-73
2021/01/09 09:56:39;;;;;;;57.28;21.88;;;26.30;2201.60;;;;;;5015215;28;20030;-73
2021/01/09 09:59:11;;;;;;;64.32;22.83;;;26.40;2201.60;;;;;;5015480;28;20061;-76
2021/01/09 10:01:37;;;;;;;61.00;21.92;;;51.20;2227.20;;;;;;5014657;28;20114;-75
2021/01/09 10:04:08;;;;;;;69.03;22.48;;;51.20;2227.20;;;;;;5012764;28;20542;-73
2021/01/09 10:06:40;;;;;;;58.00;21.98;;;51.30;2227.20;;;;;;4995332;28;20371;-74
2021/01/09 10:09:14;;;;;;;54.75;22.10;;;51.40;2227.20;;;;;;4994949;28;20331;-72
2021/01/09 10:11:41;;;;;;;57.40;22.95;;;51.50;2227.20;;;;;;4995679;28;20070;-74
2021/01/09 10:14:07;;;;;;;51.20;20.90;;;51.50;2227.20;;;;;;4995769;28;20124;-75
2021/01/09 10:16:34;;;;;;;54.33;22.08;;;51.40;2227.20;;;;;;5005406;28;20661;-74
2021/01/09 10:19:00;;;;;;;56.22;22.52;;;51.40;2227.20;;;;;;5018831;28;20343;-74
2021/01/09 10:21:32;;;;;;;51.80;21.15;;;51.50;2227.20;;;;;;5018387;28;20040;-73
2021/01/09 10:24:00;;;;;;;50.40;21.17;;;51.60;2227.20;;;;;;5018854;28;20366;-75
2021/01/09 10:26:28;;;;;;;50.95;20.95;;;51.50;2227.20;;;;;;5018616;28;20112;-77
2021/01/09 10:28:54;;;;;;;50.53;20.40;;;51.40;2227.20;;;;;;5018386;28;20034;-75
2021/01/09 10:31:30;;;;;;;52.50;21.30;;;51.30;2227.20;;;;;;5017909;28;20029;-74
2021/01/09 10:33:56;;;;;;;51.58;21.00;;;51.20;2227.20;;;;;;5018200;28;20026;-74
2021/01/09 10:36:26;;;;;;;59.00;22.23;;;26.50;2201.60;;;;;;5018134;28;20033;-75
2021/01/09 10:38:52;;;;;;;60.83;22.98;;;26.50;2201.60;;;;;;5009743;28;20084;-73
2021/01/09 10:41:18;;;;;;;58.35;22.83;;;26.50;2201.60;;;;;;5006359;28;20025;-75
2021/01/09 10:43:44;;;;;;;53.55;23.05;;;26.50;2201.60;;;;;;5018207;28;20029;-76
2021/01/09 10:46:10;;;;;;;55.72;22.95;;;51.20;2227.20;;;;;;5017919;28;20442;-74
2021/01/09 10:48:36;;;;;;;58.45;22.83;;;26.40;2201.60;;;;;;5018265;28;20427;-73
2021/01/09 10:51:01;;;;;;;55.40;23.77;;;26.40;2201.60;;;;;;5018005;28;20108;-73
2021/01/09 10:53:27;;;;;;;55.15;22.55;;;26.30;2201.60;;;;;;5015375;28;20475;-73
2021/01/09 10:55:56;;;;;;;55.75;21.65;;;26.30;2201.60;;;;;;5011365;28;20076;-73
2021/01/09 10:58:22;;;;;;;;;;;26.40;2201.60;;;;;;5015995;28;20036;-73
2021/01/09 11:00:48;;;;;;;57.60;22.75;;;26.40;2201.60;;;;;;5010595;28;20214;-73
2021/01/09 11:03:14;;;;;;;56.20;22.63;;;26.40;2201.60;;;;;;5016600;28;20030;-73
2021/01/09 11:05:43;;;;;;;52.80;21.30;;;26.20;2201.60;;;;;;5016195;28;20077;-72
2021/01/09 11:08:09;;;;;;;48.90;20.60;;;26.10;2201.60;;;;;;5017229;28;20446;-73
2021/01/09 11:10:34;;;;;;;51.33;20.27;;;26.30;2201.60;;;;;;5017511;28;20184;-73
2021/01/09 11:13:00;;;;;;;43.95;18.90;;;26.50;2201.60;;;;;;5017205;28;20439;-73
2021/01/09 11:15:26;;;;;;;48.78;21.55;;;51.20;2227.20;;;;;;5016580;28;20707;-72
2021/01/09 11:17:52;;;;;;;45.00;19.90;;;51.20;2227.20;;;;;;5016785;28;20498;-74
2021/01/09 11:20:18;;;;;;;45.33;19.02;;;51.30;2227.20;;;;;;5017469;28;20442;-73
2021/01/09 11:22:44;;;;;;;40.15;18.85;;;51.50;2227.20;;;;;;5017388;28;20064;-71
2021/01/09 11:25:11;;;;;;;42.90;18.88;;;51.50;2227.20;;;;;;5016913;28;20030;-74
2021/01/09 11:27:36;;;;;;;41.33;17.88;;;51.50;2227.20;;;;;;5016691;28;20025;-74
2021/01/09 11:30:03;;;;;;;43.42;18.08;;;51.50;2227.20;;;;;;5016640;28;20036;-75
2021/01/09 11:32:29;;;;;;;45.03;22.13;;;51.60;2227.20;;;;;;5016995;28;20025;-74
2021/01/09 11:34:54;;;;;;;37.05;18.40;;;51.60;2227.20;;;;;;5017797;28;20323;-76
2021/01/09 11:37:24;;;;;;;38.97;18.83;;;51.60;2227.20;;;;;;5016240;28;20645;-74
2021/01/09 11:39:53;;;;;;;44.28;20.20;;;51.60;2227.20;;;;;;5017067;28;20065;-75
2021/01/09 11:42:20;;;;;;;41.78;20.33;;;51.40;2227.20;;;;;;5000836;28;20084;-73
2021/01/09 11:44:46;;;;;;;43.78;19.08;;;51.50;2227.20;;;;;;4997284;28;20062;-71
2021/01/09 11:47:12;;;;;;;42.15;19.67;;;51.50;2227.20;;;;;;4997670;28;20057;-75
2021/01/09 11:49:38;;;;;;;45.05;19.75;;;51.60;2227.20;;;;;;4997009;28;20475;-72
2021/01/09 11:52:04;;;;;;;44.03;20.23;;;51.50;2227.20;;;;;;5009394;28;20036;-74
2021/01/09 11:54:29;;;;;;;51.72;21.30;;;51.40;2227.20;;;;;;5016770;28;20033;-74
2021/01/09 11:56:56;;;;;;;43.92;18.60;;;51.30;2227.20;;;;;;5017194;28;20079;-72
2021/01/09 11:59:22;;;;;;;46.38;20.58;;;51.30;2227.20;;;;;;5016567;28;20037;-72
2021/01/09 12:01:48;;;;;;;43.67;18.67;;;51.40;2227.20;;;;;;5016760;28;20490;-72
2021/01/09 12:04:13;;;;;;;41.85;18.38;;;51.30;2227.20;;;;;;5011197;28;20105;-73
2021/01/09 12:06:39;;;;;;;43.03;19.13;;;51.20;2227.20;;;;;;5003729;28;20039;-74
2021/01/09 12:09:05;;;;;;;46.80;20.30;;;51.20;2227.20;;;;;;5009253;28;20049;-72
2021/01/09 12:11:36;;;;;;;45.88;20.35;;;51.30;2227.20;;;;;;5006894;28;20038;-75
2021/01/09 12:14:02;;;;;;;45.67;19.25;;;51.30;2227.20;;;;;;5002933;28;20076;-73